Time;durP1;ratioP1;P1;durP2;ratioP2;P2;SDS_P1;SDS_P2;PMS_P1;PMS_P2;Temp;Humidity;BMP_temperature;BMP_pressure;BME280_temperature;BME280_humidity;BME280_pressure;Samples;Min_cycle;Max_cycle;Signal;HPM_P1;HPM_P2
2021/10/03 00:01:38;;;;;;;2.53;0.70;;;8.30;91.40;;;;;;4862009;29;20045;-74
2021/10/03 00:04:06;;;;;;;2.95;0.82;;;8.20;91.30;;;;;;4861164;29;20061;-74
2021/10/03 00:06:35;;;;;;;1.80;0.75;;;8.20;91.30;;;;;;4886742;29;20055;-74
2021/10/03 00:09:02;;;;;;;0.70;0.70;;;8.10;91.30;;;;;;4864959;29;20057;-75
2021/10/03 00:11:30;;;;;;;1.80;0.60;;;8.10;91.30;;;;;;4880111;29;20063;-74
2021/10/03 00:13:58;;;;;;;1.38;0.70;;;8.00;91.30;;;;;;4896635;29;20049;-74
2021/10/03 00:16:25;;;;;;;6.00;0.80;;;8.00;91.30;;;;;;4895922;29;20052;-74
2021/10/03 00:18:53;;;;;;;6.47;0.82;;;8.00;91.30;;;;;;4896372;29;20060;-74
2021/10/03 00:21:40;;;;;;;1.42;0.50;;;7.90;91.40;;;;;;4896372;29;20045;-74
2021/10/03 00:24:08;;;;;;;2.97;0.70;;;7.80;91.50;;;;;;4896992;29;20067;-74
2021/10/03 00:26:37;;;;;;;2.42;0.85;;;7.80;91.60;;;;;;4896534;29;20052;-74
2021/10/03 00:29:05;;;;;;;5.35;0.93;;;7.80;91.70;;;;;;4897305;29;20399;-73
2021/10/03 00:31:32;;;;;;;1.10;0.70;;;7.80;91.80;;;;;;4897086;29;20056;-74
2021/10/03 00:34:00;;;;;;;3.85;0.90;;;7.70;91.90;;;;;;4880485;29;20041;-74
2021/10/03 00:36:28;;;;;;;5.35;0.80;;;7.70;92.00;;;;;;4897991;29;20061;-74
2021/10/03 00:38:55;;;;;;;4.25;0.70;;;7.70;92.10;;;;;;4881003;29;20154;-73
2021/10/03 00:41:23;;;;;;;1.25;0.70;;;7.70;92.20;;;;;;4896705;29;20051;-74
2021/10/03 00:43:51;;;;;;;3.92;0.75;;;7.80;92.20;;;;;;4879992;29;20055;-74
2021/10/03 00:46:19;;;;;;;1.90;0.73;;;7.80;92.30;;;;;;4879952;29;20052;-75
2021/10/03 00:48:48;;;;;;;1.48;0.57;;;7.80;92.30;;;;;;4896537;29;20052;-74
2021/10/03 00:51:16;;;;;;;2.13;0.57;;;7.80;92.20;;;;;;4895992;29;20045;-74
2021/10/03 00:53:44;;;;;;;2.85;0.73;;;7.80;92.10;;;;;;4880299;29;20051;-74
2021/10/03 00:56:15;;;;;;;2.25;0.70;;;7.80;92.10;;;;;;4896485;29;20048;-74
2021/10/03 00:58:43;;;;;;;4.82;0.80;;;7.70;92.10;;;;;;4896577;29;20055;-74
2021/10/03 01:01:12;;;;;;;1.13;0.50;;;7.70;92.20;;;;;;4896658;29;20059;-74
2021/10/03 01:03:40;;;;;;;4.22;0.77;;;7.70;92.30;;;;;;4897532;29;20056;-74
2021/10/03 01:06:09;;;;;;;5.57;0.98;;;7.60;92.40;;;;;;4899658;29;20048;-75
2021/10/03 01:08:37;;;;;;;3.33;0.60;;;7.50;92.50;;;;;;4899923;29;20048;-74
2021/10/03 01:11:05;;;;;;;3.55;0.70;;;7.50;92.60;;;;;;4883014;29;20064;-74
2021/10/03 01:13:33;;;;;;;3.83;0.65;;;7.50;92.70;;;;;;4882923;29;20131;-74
2021/10/03 01:16:00;;;;;;;5.03;0.73;;;7.50;92.70;;;;;;4898431;29;20053;-74
2021/10/03 01:18:28;;;;;;;3.28;0.60;;;7.50;92.60;;;;;;4882231;29;20419;-74
2021/10/03 01:20:55;;;;;;;2.83;0.85;;;7.40;92.50;;;;;;4883205;29;20067;-74
2021/10/03 01:23:23;;;;;;;7.53;0.95;;;7.30;92.50;;;;;;4898226;29;20495;-75
2021/10/03 01:25:51;;;;;;;9.15;1.00;;;7.30;92.50;;;;;;4899788;29;20060;-75
2021/10/03 01:28:19;;;;;;;2.60;0.40;;;7.30;92.50;;;;;;4899449;29;20056;-74
2021/10/03 01:30:50;;;;;;;2.28;0.50;;;7.20;92.60;;;;;;4898361;29;20426;-75
2021/10/03 01:33:20;;;;;;;3.47;0.40;;;7.30;92.70;;;;;;4882462;29;20049;-74
2021/10/03 01:35:47;;;;;;;3.90;0.68;;;7.20;92.60;;;;;;4878816;29;20044;-75
2021/10/03 01:38:15;;;;;;;3.47;0.68;;;7.20;92.60;;;;;;4880462;29;20061;-73
2021/10/03 01:40:44;;;;;;;2.15;0.70;;;7.10;92.60;;;;;;4880567;29;20053;-74
2021/10/03 01:43:13;;;;;;;3.40;0.68;;;7.00;92.60;;;;;;4894788;29;20056;-74
2021/10/03 01:45:41;;;;;;;3.50;0.70;;;6.90;92.70;;;;;;4880618;29;20380;-74
2021/10/03 01:48:13;;;;;;;8.27;0.85;;;6.90;92.80;;;;;;4863050;29;20049;-74
2021/10/03 01:50:55;;;;;;;5.07;0.60;;;6.80;92.80;;;;;;4880358;29;20053;-74
2021/10/03 01:53:24;;;;;;;6.32;0.60;;;6.80;92.80;;;;;;4879886;29;20053;-74
2021/10/03 01:55:54;;;;;;;4.07;0.50;;;6.80;92.90;;;;;;4880197;29;20510;-74
2021/10/03 01:58:23;;;;;;;6.25;0.50;;;6.80;92.90;;;;;;4880235;29;20061;-74
2021/10/03 02:00:55;;;;;;;2.28;0.55;;;6.80;92.80;;;;;;4894823;29;20060;-74
2021/10/03 02:03:22;;;;;;;1.75;0.40;;;6.80;92.70;;;;;;4880417;29;20053;-74
2021/10/03 02:05:50;;;;;;;6.07;0.60;;;6.80;92.60;;;;;;4880172;29;20053;-74
2021/10/03 02:08:18;;;;;;;2.08;0.50;;;6.80;92.50;;;;;;4878331;29;20426;-74
2021/10/03 02:10:50;;;;;;;3.25;0.50;;;6.80;92.30;;;;;;4880154;29;20065;-74
2021/10/03 02:13:20;;;;;;;6.32;0.95;;;6.80;92.10;;;;;;4882024;29;20052;-74
2021/10/03 02:15:49;;;;;;;3.67;0.68;;;6.90;91.90;;;;;;4895317;29;20177;-74
2021/10/03 02:18:19;;;;;;;4.00;0.55;;;6.90;91.60;;;;;;4893890;29;20045;-74
2021/10/03 02:20:51;;;;;;;2.03;0.50;;;6.90;91.40;;;;;;4862580;29;20068;-73
2021/10/03 02:23:19;;;;;;;5.90;0.50;;;6.90;91.40;;;;;;4894152;29;20064;-74
2021/10/03 02:25:47;;;;;;;5.82;0.60;;;6.90;91.30;;;;;;4879903;29;20049;-74
2021/10/03 02:28:24;;;;;;;2.50;0.60;;;6.90;91.20;;;;;;4894374;29;20045;-75
2021/10/03 02:30:57;;;;;;;9.45;0.70;;;6.90;91.10;;;;;;4878861;29;20554;-75
2021/10/03 02:33:26;;;;;;;1.33;0.55;;;6.80;91.10;;;;;;4879635;29;20060;-75
2021/10/03 02:35:58;;;;;;;10.13;0.73;;;6.80;91.20;;;;;;4898109;29;20053;-74
2021/10/03 02:38:26;;;;;;;7.70;0.67;;;6.80;91.10;;;;;;4898196;29;20049;-74
2021/10/03 02:40:57;;;;;;;5.57;0.70;;;6.70;91.10;;;;;;4898003;29;20063;-74
2021/10/03 02:43:27;;;;;;;2.35;0.55;;;6.50;91.20;;;;;;4898087;29;20049;-74
2021/10/03 02:45:56;;;;;;;6.90;0.93;;;6.30;91.30;;;;;;4898110;29;20064;-74
2021/10/03 02:48:25;;;;;;;3.60;0.50;;;6.20;91.40;;;;;;4881399;29;20410;-74
2021/10/03 02:50:53;;;;;;;7.63;0.80;;;6.10;91.60;;;;;;4896966;29;20406;-74
2021/10/03 02:53:23;;;;;;;2.05;0.88;;;5.90;92.00;;;;;;4897416;29;20060;-74
2021/10/03 02:55:51;;;;;;;6.47;1.02;;;5.80;92.40;;;;;;4881160;29;20495;-74
2021/10/03 02:58:19;;;;;;;11.95;1.05;;;5.80;92.60;;;;;;4897656;29;20398;-74
2021/10/03 03:00:53;;;;;;;1.73;0.70;;;5.70;92.70;;;;;;4881211;29;20059;-74
2021/10/03 03:03:22;;;;;;;5.68;0.75;;;5.70;92.70;;;;;;4865447;29;20053;-74
2021/10/03 03:05:49;;;;;;;4.97;0.75;;;5.70;92.80;;;;;;4881043;29;20056;-74
2021/10/03 03:08:17;;;;;;;5.22;1.13;;;5.70;92.90;;;;;;4904362;29;20048;-74
2021/10/03 03:10:45;;;;;;;4.57;1.02;;;5.60;92.90;;;;;;4899316;29;20056;-74
2021/10/03 03:13:12;;;;;;;4.80;0.90;;;5.50;93.00;;;;;;4916284;29;20067;-74
2021/10/03 03:15:40;;;;;;;5.75;0.95;;;5.50;92.80;;;;;;4916398;29;20052;-74
2021/10/03 03:18:08;;;;;;;5.30;0.98;;;5.40;92.70;;;;;;4916267;29;20055;-74
2021/10/03 03:20:35;;;;;;;10.10;1.23;;;5.30;92.70;;;;;;4916233;29;20052;-75
2021/10/03 03:23:03;;;;;;;5.82;1.20;;;5.30;93.10;;;;;;4915730;29;20060;-75
2021/10/03 03:25:30;;;;;;;4.82;1.27;;;5.30;93.40;;;;;;4915967;29;20434;-74
2021/10/03 03:27:58;;;;;;;4.50;1.23;;;5.30;93.60;;;;;;4916220;29;20059;-74
2021/10/03 03:30:25;;;;;;;7.47;1.35;;;5.30;93.70;;;;;;4915945;29;20044;-74
2021/10/03 03:32:53;;;;;;;3.83;0.93;;;5.30;93.90;;;;;;4898781;29;20067;-75
2021/10/03 03:35:21;;;;;;;2.67;0.95;;;5.30;93.80;;;;;;4901023;29;20060;-74
2021/10/03 03:37:48;;;;;;;4.45;1.20;;;5.30;93.80;;;;;;4897176;29;20435;-74
2021/10/03 03:40:18;;;;;;;4.05;1.10;;;5.30;93.90;;;;;;4880480;29;20056;-75
2021/10/03 03:42:47;;;;;;;13.55;1.48;;;5.30;94.00;;;;;;4897273;29;20064;-74
2021/10/03 03:45:15;;;;;;;5.90;1.30;;;5.30;93.90;;;;;;4880050;29;20059;-74
2021/10/03 03:47:43;;;;;;;9.57;1.50;;;5.30;93.90;;;;;;4880007;29;20052;-75
2021/10/03 03:50:13;;;;;;;7.13;1.27;;;5.30;93.80;;;;;;4896746;29;20514;-75
2021/10/03 03:52:42;;;;;;;4.30;1.00;;;5.20;93.60;;;;;;4880019;29;20044;-74
2021/10/03 03:55:10;;;;;;;4.15;1.02;;;5.20;93.70;;;;;;4897331;29;20048;-74
2021/10/03 03:57:38;;;;;;;8.30;1.20;;;5.20;93.90;;;;;;4880363;29;20049;-74
2021/10/03 04:00:09;;;;;;;9.10;1.67;;;5.20;94.00;;;;;;4896161;29;20057;-74
2021/10/03 04:02:37;;;;;;;6.28;1.27;;;5.20;93.80;;;;;;4880371;29;20045;-74
2021/10/03 04:05:06;;;;;;;8.70;1.30;;;5.10;93.70;;;;;;4897020;29;20049;-74
2021/10/03 04:07:34;;;;;;;6.15;1.45;;;5.10;93.60;;;;;;4896900;29;20049;-74
2021/10/03 04:10:03;;;;;;;6.80;1.33;;;5.00;93.60;;;;;;4879973;29;20059;-75
2021/10/03 04:12:31;;;;;;;6.90;1.55;;;5.00;93.80;;;;;;4896950;29;20055;-74
2021/10/03 04:14:59;;;;;;;4.13;1.38;;;5.00;94.00;;;;;;4896719;29;20052;-74
2021/10/03 04:17:26;;;;;;;6.82;1.70;;;5.00;94.00;;;;;;4879802;29;20052;-75
2021/10/03 04:19:54;;;;;;;9.35;1.30;;;5.00;94.20;;;;;;4895500;29;20071;-74
2021/10/03 04:22:22;;;;;;;5.07;1.50;;;5.00;94.30;;;;;;4896538;29;20493;-74
2021/10/03 04:24:49;;;;;;;2.92;1.05;;;5.10;94.20;;;;;;4896256;29;20060;-73
2021/10/03 04:27:17;;;;;;;13.18;1.40;;;5.10;94.30;;;;;;4896916;29;20056;-74
2021/10/03 04:29:45;;;;;;;3.15;1.15;;;5.10;94.50;;;;;;4896724;29;20529;-75
2021/10/03 04:32:12;;;;;;;5.50;1.40;;;5.20;94.50;;;;;;4896821;29;20514;-74
2021/10/03 04:34:40;;;;;;;5.35;0.98;;;5.20;94.40;;;;;;4896773;29;20064;-74
2021/10/03 04:37:07;;;;;;;7.63;1.20;;;5.20;94.50;;;;;;4896646;29;20048;-74
2021/10/03 04:39:36;;;;;;;5.35;1.33;;;5.30;94.50;;;;;;4882695;29;20056;-74
2021/10/03 04:42:04;;;;;;;8.20;1.20;;;5.30;94.50;;;;;;4883722;29;20045;-74
2021/10/03 04:44:32;;;;;;;5.50;1.38;;;5.30;94.40;;;;;;4883269;29;20518;-74
2021/10/03 04:46:59;;;;;;;4.28;1.42;;;5.30;94.40;;;;;;4883284;29;20059;-74
2021/10/03 04:49:27;;;;;;;3.00;1.40;;;5.30;94.30;;;;;;4883218;29;20059;-75
2021/10/03 04:51:54;;;;;;;9.18;1.42;;;5.30;94.40;;;;;;4883039;29;20503;-75
2021/10/03 04:54:22;;;;;;;5.72;1.20;;;5.30;94.50;;;;;;4883162;29;20503;-75
2021/10/03 04:56:49;;;;;;;3.22;0.70;;;5.30;94.70;;;;;;4883079;29;20063;-75
2021/10/03 04:59:17;;;;;;;4.93;1.17;;;5.30;94.50;;;;;;4883012;29;20059;-75
2021/10/03 05:01:45;;;;;;;6.22;1.25;;;5.40;94.50;;;;;;4867154;29;20052;-75
2021/10/03 05:04:12;;;;;;;4.63;1.23;;;5.30;94.50;;;;;;4898364;29;20411;-75
2021/10/03 05:06:40;;;;;;;10.05;1.42;;;5.30;94.40;;;;;;4867253;29;20499;-75
2021/10/03 05:09:08;;;;;;;6.32;1.40;;;5.30;94.40;;;;;;4899782;29;20558;-73
2021/10/03 05:11:37;;;;;;;4.03;1.30;;;5.40;94.50;;;;;;4867249;29;20064;-74
2021/10/03 05:14:07;;;;;;;2.92;1.20;;;5.30;94.30;;;;;;4882733;29;20060;-73
2021/10/03 05:16:35;;;;;;;2.80;1.10;;;5.40;94.40;;;;;;4899753;29;20048;-73
2021/10/03 05:19:04;;;;;;;9.68;1.23;;;5.30;94.50;;;;;;4898869;29;20061;-73
2021/10/03 05:21:32;;;;;;;8.27;1.17;;;5.40;94.50;;;;;;4882660;29;20060;-74
2021/10/03 05:24:00;;;;;;;2.63;0.90;;;5.40;94.40;;;;;;4865512;29;20072;-74
2021/10/03 05:26:27;;;;;;;5.60;1.08;;;5.30;94.40;;;;;;4866100;29;20427;-74
2021/10/03 05:28:55;;;;;;;4.43;0.98;;;5.40;94.50;;;;;;4898601;29;20044;-74
2021/10/03 05:31:28;;;;;;;5.22;1.15;;;5.40;94.50;;;;;;4865585;29;20057;-74
2021/10/03 05:33:57;;;;;;;7.85;1.38;;;5.40;94.50;;;;;;4878351;29;20045;-73
2021/10/03 05:36:25;;;;;;;4.30;1.00;;;5.40;94.50;;;;;;4879549;29;20053;-74
2021/10/03 05:38:56;;;;;;;4.57;0.95;;;5.50;94.40;;;;;;4862888;29;20045;-74
2021/10/03 05:41:24;;;;;;;5.18;1.15;;;5.50;94.40;;;;;;4862474;29;20057;-74
2021/10/03 05:43:51;;;;;;;3.25;1.35;;;5.50;94.20;;;;;;4862865;29;20045;-74
2021/10/03 05:46:20;;;;;;;5.00;1.20;;;5.50;94.20;;;;;;4879518;29;20068;-73
2021/10/03 05:48:47;;;;;;;8.02;1.10;;;5.50;94.20;;;;;;4847491;29;20053;-74
2021/10/03 05:51:15;;;;;;;4.15;1.05;;;5.40;94.00;;;;;;4862401;29;20057;-74
2021/10/03 05:53:42;;;;;;;6.00;0.88;;;5.50;94.20;;;;;;4879073;29;20414;-74
2021/10/03 05:56:11;;;;;;;4.20;0.82;;;5.40;94.10;;;;;;4879274;29;20411;-74
2021/10/03 05:58:38;;;;;;;2.20;0.80;;;5.50;94.20;;;;;;4862683;29;20041;-75
2021/10/03 06:01:06;;;;;;;3.63;0.80;;;5.50;94.20;;;;;;4862611;29;20495;-74
2021/10/03 06:03:37;;;;;;;5.65;1.20;;;5.60;94.00;;;;;;4861222;29;20053;-73
2021/10/03 06:06:05;;;;;;;3.38;0.90;;;5.60;93.90;;;;;;4846670;29;20329;-74
2021/10/03 06:08:33;;;;;;;4.22;0.70;;;5.50;93.80;;;;;;4862729;29;20041;-73
2021/10/03 06:11:01;;;;;;;5.47;1.10;;;5.60;93.70;;;;;;4879009;29;20411;-73
2021/10/03 06:13:28;;;;;;;6.57;1.55;;;5.60;93.60;;;;;;4879054;29;20408;-73
2021/10/03 06:15:58;;;;;;;2.00;0.57;;;5.60;93.50;;;;;;4879091;29;20403;-73
2021/10/03 06:18:26;;;;;;;7.35;0.88;;;5.60;93.60;;;;;;4878945;29;20049;-73
2021/10/03 06:20:53;;;;;;;2.50;0.88;;;5.60;93.50;;;;;;4862275;29;20049;-74
2021/10/03 06:23:20;;;;;;;6.20;0.80;;;5.50;93.60;;;;;;4823630;29;1154441;-73
2021/10/03 06:25:48;;;;;;;4.03;0.77;;;5.50;93.60;;;;;;4896148;29;20068;-74
2021/10/03 06:28:16;;;;;;;3.60;0.75;;;5.60;93.50;;;;;;4904928;29;20653;-74
2021/10/03 06:30:43;;;;;;;3.08;0.65;;;5.70;93.40;;;;;;4906038;29;20057;-74
2021/10/03 06:33:11;;;;;;;7.03;1.10;;;5.60;93.20;;;;;;4890200;29;20134;-74
2021/10/03 06:35:39;;;;;;;4.75;0.80;;;5.70;93.20;;;;;;4899632;29;20057;-74
2021/10/03 06:38:07;;;;;;;6.07;1.15;;;5.70;93.20;;;;;;4881534;29;20049;-74
2021/10/03 06:40:34;;;;;;;4.97;0.63;;;5.70;93.20;;;;;;4865724;29;20407;-74
2021/10/03 06:43:02;;;;;;;2.75;0.80;;;5.70;93.10;;;;;;4897941;29;20040;-74
2021/10/03 06:45:30;;;;;;;5.00;1.00;;;5.70;93.10;;;;;;4865822;29;20055;-75
2021/10/03 06:47:57;;;;;;;3.92;0.70;;;5.70;93.00;;;;;;4881842;29;20415;-74
2021/10/03 06:50:26;;;;;;;5.65;0.65;;;5.80;92.90;;;;;;4881262;29;20126;-75
2021/10/03 06:52:53;;;;;;;5.95;0.70;;;5.80;92.80;;;;;;4880990;29;20053;-74
2021/10/03 06:55:21;;;;;;;3.08;0.70;;;5.90;92.60;;;;;;4897805;29;20044;-74
2021/10/03 06:57:49;;;;;;;3.55;0.77;;;5.90;92.40;;;;;;4897855;29;20384;-74
2021/10/03 07:00:16;;;;;;;7.43;0.82;;;5.90;92.20;;;;;;4865116;29;20056;-75
2021/10/03 07:02:44;;;;;;;4.18;1.27;;;6.00;92.10;;;;;;4880744;29;20059;-74
2021/10/03 07:05:13;;;;;;;6.80;1.20;;;6.00;91.90;;;;;;4898266;29;20044;-75
2021/10/03 07:07:44;;;;;;;3.10;0.90;;;6.00;91.80;;;;;;4900850;29;20048;-75
2021/10/03 07:10:12;;;;;;;5.20;0.85;;;6.00;91.80;;;;;;4916195;29;20048;-74
2021/10/03 07:12:41;;;;;;;5.88;1.20;;;6.00;91.90;;;;;;4916322;29;20048;-74
2021/10/03 07:15:09;;;;;;;5.10;0.95;;;6.00;91.90;;;;;;4915065;29;20414;-75
2021/10/03 07:17:36;;;;;;;5.68;1.00;;;6.00;91.90;;;;;;4916413;29;20055;-74
2021/10/03 07:20:05;;;;;;;5.75;0.90;;;5.90;91.90;;;;;;4916332;29;20040;-74
2021/10/03 07:22:33;;;;;;;10.65;1.60;;;5.90;92.00;;;;;;4915294;29;20067;-75
2021/10/03 07:25:00;;;;;;;8.30;1.15;;;5.90;92.10;;;;;;4916321;29;20063;-74
2021/10/03 07:27:29;;;;;;;3.83;0.85;;;5.90;92.10;;;;;;4899377;29;20486;-74
2021/10/03 07:29:56;;;;;;;9.77;1.30;;;5.90;92.10;;;;;;4916060;29;20531;-74
2021/10/03 07:32:24;;;;;;;8.48;0.90;;;6.00;92.10;;;;;;4883266;29;20414;-74
2021/10/03 07:34:57;;;;;;;8.10;1.17;;;5.90;92.10;;;;;;4881039;29;20044;-74
2021/10/03 07:37:25;;;;;;;6.30;0.90;;;6.00;92.10;;;;;;4864554;29;20068;-75
2021/10/03 07:39:52;;;;;;;4.40;1.20;;;6.00;92.10;;;;;;4880504;29;20060;-74
2021/10/03 07:42:20;;;;;;;4.03;0.80;;;6.10;92.20;;;;;;4897221;29;20067;-74
2021/10/03 07:44:48;;;;;;;5.80;0.90;;;6.20;92.20;;;;;;4904720;29;20059;-74
2021/10/03 07:47:15;;;;;;;5.60;0.90;;;6.30;92.00;;;;;;4898789;29;20422;-74
2021/10/03 07:49:43;;;;;;;5.22;0.68;;;6.40;91.80;;;;;;4915695;29;20063;-74
2021/10/03 07:52:11;;;;;;;6.35;0.60;;;6.60;91.70;;;;;;4899217;29;20052;-75
2021/10/03 07:54:38;;;;;;;5.50;1.10;;;6.70;91.60;;;;;;4915470;29;20056;-75
2021/10/03 07:57:06;;;;;;;5.00;0.88;;;6.70;91.40;;;;;;4899248;29;20056;-75
2021/10/03 07:59:33;;;;;;;5.50;0.98;;;6.80;91.30;;;;;;4898835;29;20052;-74
2021/10/03 08:02:01;;;;;;;5.78;0.52;;;7.00;91.10;;;;;;4883260;29;20059;-73
2021/10/03 08:04:29;;;;;;;4.88;0.82;;;7.10;91.00;;;;;;4898628;29;20040;-74
2021/10/03 08:06:56;;;;;;;2.42;0.70;;;7.20;90.90;;;;;;4898802;29;20048;-74
2021/10/03 08:09:24;;;;;;;5.28;0.90;;;7.30;90.70;;;;;;4915945;29;20067;-74
2021/10/03 08:11:54;;;;;;;8.75;0.90;;;7.40;90.50;;;;;;4898986;29;20052;-74
2021/10/03 08:14:22;;;;;;;3.38;0.65;;;7.50;90.40;;;;;;4918519;29;20055;-74
2021/10/03 08:16:50;;;;;;;6.72;0.90;;;7.60;90.40;;;;;;4919490;29;20056;-74
2021/10/03 08:19:18;;;;;;;6.20;0.63;;;7.70;90.30;;;;;;4919718;29;20036;-73
2021/10/03 08:21:49;;;;;;;12.43;1.23;;;7.80;90.20;;;;;;4919651;29;20390;-73
2021/10/03 08:24:17;;;;;;;4.55;0.90;;;7.80;89.90;;;;;;4917929;29;20521;-73
2021/10/03 08:26:48;;;;;;;5.28;0.90;;;7.90;89.80;;;;;;4887748;29;20062;-74
2021/10/03 08:29:16;;;;;;;4.95;1.30;;;8.00;89.70;;;;;;4919465;29;20052;-74
2021/10/03 08:31:44;;;;;;;6.22;1.08;;;8.10;89.50;;;;;;4919764;29;20055;-74
2021/10/03 08:34:12;;;;;;;12.00;1.00;;;8.30;89.40;;;;;;4913161;29;20056;-74
2021/10/03 08:36:40;;;;;;;2.88;0.52;;;8.40;89.20;;;;;;4900197;29;20056;-74
2021/10/03 08:39:08;;;;;;;2.33;0.55;;;8.50;88.70;;;;;;4883491;29;20502;-75
2021/10/03 08:41:38;;;;;;;4.43;0.73;;;8.60;88.30;;;;;;4900491;29;20526;-75
2021/10/03 08:44:05;;;;;;;4.20;1.10;;;8.70;88.00;;;;;;4884604;29;20055;-74
2021/10/03 08:46:34;;;;;;;6.60;0.60;;;8.80;87.90;;;;;;4883825;29;20502;-75
2021/10/03 08:49:03;;;;;;;8.82;0.70;;;8.90;87.70;;;;;;4900393;29;20064;-74
2021/10/03 08:51:30;;;;;;;8.68;1.00;;;9.10;87.70;;;;;;4899980;29;20499;-75
2021/10/03 08:53:58;;;;;;;5.88;0.68;;;9.30;87.30;;;;;;4899767;29;20551;-74
2021/10/03 08:56:26;;;;;;;6.25;0.85;;;9.40;87.10;;;;;;4882858;29;20111;-75
2021/10/03 08:58:53;;;;;;;5.63;0.90;;;9.50;86.50;;;;;;4900281;29;20435;-75
2021/10/03 09:01:22;;;;;;;6.95;1.00;;;9.60;86.60;;;;;;4899972;29;20051;-75
2021/10/03 09:03:52;;;;;;;5.60;0.82;;;9.70;86.50;;;;;;4867624;29;20056;-74
2021/10/03 09:06:22;;;;;;;8.95;0.85;;;9.80;86.30;;;;;;4882760;29;20041;-75
2021/10/03 09:08:53;;;;;;;6.05;1.13;;;9.80;85.90;;;;;;4883066;29;20059;-75
2021/10/03 09:11:20;;;;;;;3.10;0.80;;;9.80;85.40;;;;;;4899733;29;20056;-74
2021/10/03 09:13:50;;;;;;;6.38;1.05;;;9.90;85.50;;;;;;4867432;29;20060;-73
2021/10/03 09:16:27;;;;;;;9.63;1.02;;;10.00;85.50;;;;;;4882678;29;20051;-75
2021/10/03 09:18:58;;;;;;;6.57;1.17;;;10.00;84.90;;;;;;4882905;29;20048;-74
2021/10/03 09:21:28;;;;;;;2.80;0.52;;;10.00;84.90;;;;;;4882654;29;20048;-75
2021/10/03 09:24:06;;;;;;;12.77;1.23;;;10.10;84.70;;;;;;4866844;29;20068;-75
2021/10/03 09:26:36;;;;;;;5.68;0.90;;;10.30;84.80;;;;;;4881843;29;20056;-74
2021/10/03 09:29:28;;;;;;;8.45;1.05;;;10.40;84.20;;;;;;4882621;29;20057;-74
2021/10/03 09:32:15;;;;;;;6.65;0.95;;;10.50;84.10;;;;;;4899482;29;20048;-75
2021/10/03 09:34:49;;;;;;;5.28;0.70;;;10.60;83.60;;;;;;4879208;29;20053;-74
2021/10/03 09:37:32;;;;;;;5.30;0.70;;;10.70;83.20;;;;;;4880773;29;20053;-75
2021/10/03 09:40:15;;;;;;;7.70;0.98;;;10.80;82.90;;;;;;4912926;29;20049;-75
2021/10/03 09:43:02;;;;;;;2.55;0.77;;;10.80;82.80;;;;;;4912541;29;20052;-75
2021/10/03 09:45:31;;;;;;;6.90;1.45;;;10.90;83.10;;;;;;4914524;29;20056;-75
2021/10/03 09:48:00;;;;;;;4.38;0.75;;;11.00;82.60;;;;;;4917176;29;20063;-75
2021/10/03 09:50:29;;;;;;;3.10;0.45;;;11.10;82.80;;;;;;4880143;29;20368;-75
2021/10/03 09:52:58;;;;;;;2.90;0.55;;;11.30;82.70;;;;;;4899870;29;20405;-74
2021/10/03 09:55:27;;;;;;;6.18;1.10;;;11.30;82.20;;;;;;4916166;29;20047;-73
2021/10/03 09:57:56;;;;;;;4.82;0.85;;;11.40;82.00;;;;;;4900440;29;20056;-73
2021/10/03 10:00:26;;;;;;;4.57;0.60;;;11.60;81.40;;;;;;4917772;29;20048;-74
2021/10/03 10:02:54;;;;;;;7.30;0.73;;;11.70;81.10;;;;;;4913380;29;20128;-75
2021/10/03 10:05:25;;;;;;;7.75;1.35;;;11.80;81.20;;;;;;4916746;29;20048;-75
2021/10/03 10:07:56;;;;;;;7.50;1.10;;;12.00;80.60;;;;;;4916267;29;20059;-75
2021/10/03 10:10:24;;;;;;;4.90;0.70;;;12.20;80.60;;;;;;4884881;29;20060;-75
2021/10/03 10:13:04;;;;;;;4.35;1.02;;;12.40;80.00;;;;;;4917642;29;20044;-73
2021/10/03 10:15:31;;;;;;;4.68;0.90;;;12.50;79.80;;;;;;4916443;29;20066;-73
2021/10/03 10:18:23;;;;;;;7.28;0.90;;;12.70;79.90;;;;;;4885587;29;20048;-73
2021/10/03 10:20:56;;;;;;;4.78;0.80;;;12.80;78.50;;;;;;4919552;29;20410;-74
2021/10/03 10:23:28;;;;;;;;;;;13.00;78.10;;;;;;4900928;29;20056;-74
2021/10/03 10:25:59;;;;;;;7.93;1.25;;;13.00;77.40;;;;;;4869388;29;19926;-73
2021/10/03 10:28:29;;;;;;;4.40;0.90;;;13.20;77.30;;;;;;4916706;29;20506;-74
2021/10/03 10:31:10;;;;;;;9.00;1.08;;;13.40;76.70;;;;;;4901058;29;20048;-74
2021/10/03 10:33:49;;;;;;;6.05;0.80;;;13.60;76.10;;;;;;4917233;29;20071;-74
2021/10/03 10:36:20;;;;;;;5.22;0.70;;;13.60;75.50;;;;;;4883436;29;20054;-74
2021/10/03 10:39:06;;;;;;;6.88;0.90;;;13.60;75.90;;;;;;4905891;29;20063;-75
2021/10/03 10:41:47;;;;;;;8.13;1.13;;;13.50;76.50;;;;;;4881553;29;20056;-75
2021/10/03 10:44:24;;;;;;;9.93;1.27;;;13.30;77.00;;;;;;4881600;29;20044;-74
2021/10/03 10:46:53;;;;;;;9.00;1.20;;;13.10;78.10;;;;;;4897738;29;20048;-75
2021/10/03 10:49:31;;;;;;;7.15;1.00;;;13.00;79.20;;;;;;4885602;29;20052;-75
2021/10/03 10:52:18;;;;;;;10.82;1.30;;;12.90;79.70;;;;;;4907947;29;20063;-75
2021/10/03 10:55:09;;;;;;;10.13;1.20;;;12.80;80.00;;;;;;4898641;29;20064;-74
2021/10/03 10:57:48;;;;;;;8.25;1.23;;;12.80;80.50;;;;;;4896776;29;20510;-74
2021/10/03 11:00:25;;;;;;;8.05;1.30;;;13.00;80.40;;;;;;4916662;29;20410;-75
2021/10/03 11:03:04;;;;;;;8.20;1.30;;;13.20;80.20;;;;;;4908407;29;20075;-75
2021/10/03 11:05:34;;;;;;;8.85;0.95;;;13.40;78.60;;;;;;4886989;29;20052;-74
2021/10/03 11:08:10;;;;;;;2.30;0.52;;;13.60;77.70;;;;;;4902379;29;20059;-74
2021/10/03 11:10:59;;;;;;;5.22;0.95;;;13.70;75.90;;;;;;4893725;29;20044;-75
2021/10/03 11:13:44;;;;;;;3.65;0.95;;;13.80;75.90;;;;;;4914894;29;20044;-75
2021/10/03 11:16:25;;;;;;;6.38;1.15;;;13.80;76.20;;;;;;4899518;29;20047;-75
2021/10/03 11:19:22;;;;;;;6.32;0.75;;;13.80;75.70;;;;;;4902989;29;20060;-74
2021/10/03 11:21:56;;;;;;;4.78;1.00;;;13.80;75.40;;;;;;4892379;29;20048;-74
2021/10/03 11:24:29;;;;;;;7.65;0.93;;;13.80;76.00;;;;;;4888637;29;20040;-73
2021/10/03 11:27:03;;;;;;;3.50;0.70;;;13.80;76.40;;;;;;4914414;29;20522;-74
2021/10/03 11:29:39;;;;;;;7.03;1.25;;;13.70;76.60;;;;;;4911367;29;20052;-74
2021/10/03 11:32:10;;;;;;;4.82;0.80;;;13.70;76.80;;;;;;4882303;29;20044;-74
2021/10/03 11:34:40;;;;;;;3.35;0.63;;;13.70;76.80;;;;;;4898102;29;20052;-74
2021/10/03 11:37:30;;;;;;;4.63;0.85;;;13.80;76.60;;;;;;4910908;29;20498;-74
2021/10/03 11:40:02;;;;;;;6.07;1.00;;;14.00;76.00;;;;;;4915226;29;20190;-74
2021/10/03 11:42:34;;;;;;;8.15;1.20;;;14.10;75.40;;;;;;4914802;29;20052;-75
2021/10/03 11:45:04;;;;;;;7.43;1.23;;;14.10;75.20;;;;;;4897412;29;20067;-73
2021/10/03 11:47:44;;;;;;;3.83;1.02;;;14.00;76.00;;;;;;4919470;29;20040;-73
2021/10/03 11:50:16;;;;;;;5.65;0.80;;;13.80;77.90;;;;;;4897534;29;20228;-74
2021/10/03 11:52:45;;;;;;;6.53;1.27;;;13.50;78.80;;;;;;4899088;29;20066;-74
2021/10/03 11:55:19;;;;;;;10.00;0.88;;;13.30;80.10;;;;;;4915822;29;20054;-73
2021/10/03 11:57:48;;;;;;;7.80;0.75;;;13.00;81.40;;;;;;4914743;29;20071;-73
2021/10/03 12:00:27;;;;;;;8.02;0.90;;;12.70;82.60;;;;;;4897847;29;20056;-75
2021/10/03 12:03:03;;;;;;;6.35;1.10;;;12.30;84.00;;;;;;4900669;29;20060;-75
2021/10/03 12:05:34;;;;;;;6.03;1.05;;;12.20;84.80;;;;;;4897264;29;20064;-75
2021/10/03 12:08:08;;;;;;;8.75;1.10;;;12.10;85.70;;;;;;4899045;29;20055;-74
2021/10/03 12:10:44;;;;;;;6.60;1.00;;;12.20;86.10;;;;;;4897421;29;20056;-74
2021/10/03 12:13:19;;;;;;;5.57;0.88;;;12.70;86.60;;;;;;4896969;29;20053;-73
2021/10/03 12:16:17;;;;;;;7.45;1.58;;;13.50;85.70;;;;;;4879296;29;20053;-73
2021/10/03 12:18:47;;;;;;;5.80;1.25;;;14.10;84.30;;;;;;4881855;29;20060;-72
2021/10/03 12:21:19;;;;;;;5.80;1.13;;;14.10;82.90;;;;;;4877369;29;20044;-72
2021/10/03 12:24:05;;;;;;;4.78;1.00;;;14.10;82.80;;;;;;4909291;29;20060;-73
2021/10/03 12:26:39;;;;;;;5.45;0.90;;;14.10;82.90;;;;;;4891446;29;20044;-73
2021/10/03 12:29:09;;;;;;;8.27;1.42;;;14.20;81.90;;;;;;4912581;29;20048;-76
2021/10/03 12:31:49;;;;;;;3.33;0.93;;;14.10;81.80;;;;;;4899372;29;20384;-78
2021/10/03 12:34:23;;;;;;;4.70;0.80;;;14.00;81.80;;;;;;4891977;29;20046;-72
2021/10/03 12:37:16;;;;;;;4.95;1.08;;;13.80;81.40;;;;;;4902157;29;20044;-72
2021/10/03 12:39:56;;;;;;;2.38;0.73;;;13.60;81.30;;;;;;4911362;29;20056;-73
2021/10/03 12:42:29;;;;;;;4.22;0.65;;;13.30;82.00;;;;;;4881781;29;20403;-73
2021/10/03 12:44:59;;;;;;;3.53;0.50;;;12.90;81.00;;;;;;4914057;29;20562;-73
2021/10/03 12:47:27;;;;;;;11.95;0.70;;;12.60;81.10;;;;;;4913951;29;20056;-73
2021/10/03 12:49:55;;;;;;;4.32;0.85;;;12.30;81.50;;;;;;4913628;29;20052;-72
2021/10/03 12:52:24;;;;;;;2.50;0.55;;;12.20;82.00;;;;;;4913212;29;20051;-73
2021/10/03 12:54:51;;;;;;;2.92;0.40;;;12.30;83.20;;;;;;4893118;29;20052;-73
2021/10/03 12:57:19;;;;;;;6.32;1.08;;;13.10;83.50;;;;;;4886118;29;20519;-73
2021/10/03 12:59:47;;;;;;;3.42;0.47;;;13.90;82.20;;;;;;4900624;29;20060;-72
2021/10/03 13:02:15;;;;;;;3.13;0.45;;;14.80;79.60;;;;;;4917134;29;20048;-73
2021/10/03 13:05:03;;;;;;;1.35;0.40;;;15.60;77.60;;;;;;4915978;29;20044;-73
2021/10/03 13:07:31;;;;;;;5.22;0.80;;;16.30;76.00;;;;;;4915669;29;20060;-73
2021/10/03 13:09:59;;;;;;;2.17;0.50;;;17.00;73.30;;;;;;4900456;29;20044;-73